Time;durP1;ratioP1;P1;durP2;ratioP2;P2;SDS_P1;SDS_P2;PMS_P1;PMS_P2;Temp;Humidity;BMP_temperature;BMP_pressure;BME280_temperature;BME280_humidity;BME280_pressure;Samples;Min_cycle;Max_cycle;Signal;HPM_P1;HPM_P2
2024/03/03 00:01:15;;;;;;;17.43;9.17;;;;;;;-145.69;60.61;52291.91;5110567;28;20541;-82
2024/03/03 00:03:47;;;;;;;22.97;10.27;;;;;;;-145.69;61.06;52297.84;5111445;28;20251;-83
2024/03/03 00:06:13;;;;;;;22.43;9.40;;;;;;;-145.69;61.30;52303.78;5112453;28;20528;-83
2024/03/03 00:08:41;;;;;;;22.53;10.50;;;;;;;-145.69;61.17;52329.53;5111621;28;20575;-82
2024/03/03 00:11:08;;;;;;;25.30;11.43;;;;;;;-145.69;61.58;52301.81;5112601;28;20242;-83
2024/03/03 00:13:35;;;;;;;26.03;11.10;;;;;;;-145.69;60.96;52270.13;5112976;28;20222;-83
2024/03/03 00:16:05;;;;;;;19.37;10.03;;;;;;;-145.69;60.94;52301.81;5112112;28;20193;-84
2024/03/03 00:18:31;;;;;;;21.37;10.43;;;;;;;-145.69;60.89;52329.53;5112966;28;20209;-82
2024/03/03 00:20:57;;;;;;;17.23;9.20;;;;;;;-145.69;61.04;52297.84;5111363;28;20205;-83
2024/03/03 00:23:26;;;;;;;19.83;9.37;;;;;;;-145.69;61.74;52321.59;5112187;28;20653;-83
2024/03/03 00:25:55;;;;;;;22.50;10.03;;;;;;;-145.69;62.12;52289.91;5112300;28;20308;-83
2024/03/03 00:28:22;;;;;;;23.23;10.97;;;;;;;-145.69;61.90;52293.88;5112525;28;20288;-82
2024/03/03 00:30:49;;;;;;;19.33;9.10;;;;;;;-145.69;61.94;52317.66;5112274;28;20194;-83
2024/03/03 00:33:17;;;;;;;22.27;10.37;;;;;;;-145.69;61.78;52274.06;5116621;27;20197;-83
2024/03/03 00:35:44;;;;;;;24.33;10.03;;;;;;;-145.69;61.79;52293.88;5116194;28;20209;-83
2024/03/03 00:38:11;;;;;;;23.07;10.33;;;;;;;-145.69;61.66;52307.75;5115000;28;20209;-83
2024/03/03 00:40:40;;;;;;;24.73;10.90;;;;;;;-145.69;61.57;52329.53;5115469;28;20292;-82
2024/03/03 00:43:09;;;;;;;22.43;9.70;;;;;;;-145.69;61.29;52325.56;5115118;28;20198;-82
2024/03/03 00:45:38;;;;;;;19.33;9.23;;;;;;;-145.69;61.65;52283.97;5113472;28;20255;-83
2024/03/03 00:48:05;;;;;;;17.93;9.07;;;;;;;-145.69;61.26;52299.81;5114658;28;20201;-82
2024/03/03 00:50:31;;;;;;;20.63;10.47;;;;;;;-145.69;61.37;52343.38;5115656;28;20198;-83
2024/03/03 00:52:58;;;;;;;16.03;8.43;;;;;;;-145.69;61.71;52343.38;5115667;27;20710;-83
2024/03/03 00:55:25;;;;;;;16.17;7.83;;;;;;;-145.69;61.56;52301.81;5108057;28;20222;-82
2024/03/03 00:57:58;;;;;;;18.73;9.10;;;;;;;-145.69;62.42;52333.47;5095064;28;20202;-82
2024/03/03 01:00:26;;;;;;;19.00;8.10;;;;;;;-145.69;61.81;52313.69;5097404;28;20315;-82
2024/03/03 01:02:55;;;;;;;18.00;9.23;;;;;;;-145.69;62.28;52289.91;5115330;28;20282;-82
2024/03/03 01:05:22;;;;;;;19.23;9.10;;;;;;;-145.69;62.20;52333.47;5115159;28;20240;-82
2024/03/03 01:07:55;;;;;;;22.80;10.80;;;;;;;-145.69;61.83;52295.84;5114149;28;20372;-81
2024/03/03 01:10:21;;;;;;;22.33;10.50;;;;;;;-145.69;61.62;52321.59;5115562;27;20198;-82
2024/03/03 01:12:51;;;;;;;24.37;10.77;;;;;;;-145.69;61.22;52323.59;5114030;28;20645;-82
2024/03/03 01:15:18;;;;;;;21.60;10.20;;;;;;;-145.69;61.26;52305.75;5114797;28;20701;-82
2024/03/03 01:17:48;;;;;;;21.33;9.60;;;;;;;-145.69;61.61;52301.81;5114814;27;20580;-82
2024/03/03 01:20:16;;;;;;;22.57;9.33;;;;;;;-145.69;61.44;52285.97;5135638;27;20200;-82
2024/03/03 01:22:44;;;;;;;17.27;8.90;;;;;;;-145.69;61.76;52325.56;5132033;27;20207;-82
2024/03/03 01:25:11;;;;;;;19.07;8.60;;;;;;;-145.69;60.98;52278.03;5113416;28;20724;-82
2024/03/03 01:27:37;;;;;;;17.60;8.17;;;;;;;-145.69;61.60;52337.44;5115357;28;20201;-83
2024/03/03 01:30:06;;;;;;;17.57;7.83;;;;;;;-145.69;61.37;52305.75;5113931;28;20201;-83
2024/03/03 01:32:33;;;;;;;19.33;8.27;;;;;;;-145.69;61.74;52295.84;5094127;28;20194;-83
2024/03/03 01:35:00;;;;;;;13.73;7.43;;;;;;;-145.69;61.41;52299.81;5094737;28;20226;-83
2024/03/03 01:37:27;;;;;;;18.37;8.90;;;;;;;-145.69;61.68;52299.81;5097096;28;20206;-81
2024/03/03 01:39:54;;;;;;;15.83;7.10;;;;;;;-145.69;61.34;52329.53;5113811;28;20204;-82
2024/03/03 01:42:20;;;;;;;15.03;6.87;;;;;;;-145.69;61.56;52311.69;5114576;28;20537;-83
2024/03/03 01:44:50;;;;;;;13.73;7.63;;;;;;;-145.69;61.96;52305.75;5113602;28;20553;-82
2024/03/03 01:47:16;;;;;;;17.70;8.20;;;;;;;-145.69;62.09;52325.56;5112859;28;20204;-82
2024/03/03 01:49:55;;;;;;;20.70;9.27;;;;;;;-145.69;61.37;52303.78;5114794;28;20201;-82
2024/03/03 01:52:25;;;;;;;19.77;8.70;;;;;;;-145.69;60.16;52319.63;5114083;28;20225;-81
2024/03/03 01:54:52;;;;;;;15.17;7.70;;;;;;;-145.69;60.11;52274.06;5114393;28;20225;-82
2024/03/03 01:57:21;;;;;;;17.50;7.20;;;;;;;-145.69;59.84;52299.81;5114138;28;20209;-83
2024/03/03 01:59:52;;;;;;;15.77;7.03;;;;;;;-145.69;59.97;52329.53;5114383;28;20679;-82
2024/03/03 02:02:18;;;;;;;14.90;7.00;;;;;;;-145.69;59.93;52283.97;5113752;28;20312;-81
2024/03/03 02:04:45;;;;;;;14.73;7.23;;;;;;;-145.69;59.83;52325.56;5099685;28;20277;-82
2024/03/03 02:07:13;;;;;;;15.93;7.10;;;;;;;-145.69;60.06;52283.97;5114144;28;20252;-82
2024/03/03 02:09:45;;;;;;;13.67;7.43;;;;;;;-145.69;59.96;52315.66;5112223;28;20201;-82
2024/03/03 02:12:12;;;;;;;17.03;6.77;;;;;;;-145.69;60.34;52305.75;5113930;28;20537;-82
2024/03/03 02:14:43;;;;;;;15.07;7.23;;;;;;;-145.69;60.48;52345.38;5113915;28;20229;-82
2024/03/03 02:17:10;;;;;;;14.90;6.97;;;;;;;-145.69;59.73;52289.91;5114068;28;20205;-82
2024/03/03 02:19:37;;;;;;;14.67;6.73;;;;;;;-145.69;59.89;52333.47;5112927;28;20250;-82
2024/03/03 02:22:05;;;;;;;13.37;7.43;;;;;;;-145.69;59.94;52303.78;5113826;28;20612;-82
2024/03/03 02:24:32;;;;;;;16.63;7.07;;;;;;;-145.69;60.29;52311.69;5113498;28;20208;-82
2024/03/03 02:26:59;;;;;;;17.83;7.73;;;;;;;-145.69;61.12;52289.91;5113671;28;20201;-82
2024/03/03 02:29:27;;;;;;;12.50;6.20;;;;;;;-145.69;61.04;52331.50;5113483;28;20201;-82
2024/03/03 02:31:53;;;;;;;14.77;7.03;;;;;;;-145.69;61.59;52325.56;5113596;28;20672;-83
2024/03/03 02:34:21;;;;;;;15.70;6.63;;;;;;;-145.69;62.19;52335.47;5114010;28;20273;-82
2024/03/03 02:36:48;;;;;;;12.20;6.50;;;;;;;-145.69;61.98;52349.31;5112166;28;20568;-82
2024/03/03 02:39:18;;;;;;;14.47;6.67;;;;;;;-145.69;62.21;52329.53;5113569;28;20258;-82
2024/03/03 02:41:46;;;;;;;12.93;6.43;;;;;;;-145.69;61.88;52276.06;5113576;28;20197;-82
2024/03/03 02:44:12;;;;;;;14.70;7.17;;;;;;;-145.69;62.09;52329.53;5113532;28;20229;-82
2024/03/03 02:46:39;;;;;;;12.50;5.87;;;;;;;-145.69;62.02;52293.88;5111919;28;20272;-82
2024/03/03 02:49:05;;;;;;;15.37;6.80;;;;;;;-145.69;62.44;52349.31;5113452;28;20229;-82
2024/03/03 02:51:37;;;;;;;15.80;7.07;;;;;;;-145.69;62.16;52333.47;5113399;28;20233;-82
2024/03/03 02:54:06;;;;;;;13.67;6.43;;;;;;;-145.69;62.29;52325.56;5111802;28;20204;-81
2024/03/03 02:56:37;;;;;;;15.60;6.57;;;;;;;-145.69;61.70;52333.47;5113312;28;20209;-82
2024/03/03 02:59:03;;;;;;;13.77;7.13;;;;;;;-145.69;61.73;52329.53;5113452;28;20257;-82
2024/03/03 03:01:32;;;;;;;15.10;6.77;;;;;;;-145.69;61.82;52319.63;5113049;28;20193;-83
2024/03/03 03:03:59;;;;;;;13.23;6.60;;;;;;;-145.69;61.84;52329.53;5112723;28;20205;-82
2024/03/03 03:06:29;;;;;;;13.43;5.83;;;;;;;-145.69;61.28;52325.56;5113312;28;20197;-82
2024/03/03 03:08:55;;;;;;;13.93;6.50;;;;;;;-145.69;61.05;52329.53;5112992;28;20217;-81
2024/03/03 03:11:22;;;;;;;11.73;6.20;;;;;;;-145.69;60.81;52321.59;5112050;28;20231;-82
2024/03/03 03:13:50;;;;;;;14.53;6.30;;;;;;;-145.69;60.79;52333.47;5112964;28;20201;-82
2024/03/03 03:16:16;;;;;;;11.33;5.10;;;;;;;-145.69;60.79;52329.53;5112587;28;20316;-81
2024/03/03 03:18:46;;;;;;;15.87;5.73;;;;;;;-145.69;60.92;52329.53;5108724;28;20200;-82
2024/03/03 03:21:15;;;;;;;12.50;5.73;;;;;;;-145.69;60.88;52327.53;5111803;28;20285;-81
2024/03/03 03:23:41;;;;;;;12.30;5.30;;;;;;;-145.69;61.42;52355.28;5112497;28;20193;-82
2024/03/03 03:26:14;;;;;;;13.77;5.40;;;;;;;-145.69;61.51;52341.41;5112249;28;20194;-82
2024/03/03 03:28:43;;;;;;;10.70;5.13;;;;;;;-145.69;61.21;52327.53;5111960;28;20205;-82
2024/03/03 03:31:11;;;;;;;11.67;5.50;;;;;;;-145.69;61.73;52337.44;5112869;28;20197;-81
2024/03/03 03:33:40;;;;;;;11.20;5.90;;;;;;;-145.69;61.29;52321.59;5112608;28;20229;-82
2024/03/03 03:36:08;;;;;;;13.33;6.40;;;;;;;-145.69;61.20;52305.75;5112560;27;20220;-82
2024/03/03 03:38:35;;;;;;;15.33;5.80;;;;;;;-145.69;60.89;52303.78;5111835;28;20203;-81
2024/03/03 03:41:02;;;;;;;11.73;5.37;;;;;;;-145.69;60.60;52359.22;5113145;28;20648;-82
2024/03/03 03:43:31;;;;;;;11.43;5.20;;;;;;;-145.69;60.77;52349.31;5112524;28;20197;-82
2024/03/03 03:45:58;;;;;;;12.43;5.30;;;;;;;-145.69;60.81;52307.75;5111520;28;20649;-82
2024/03/03 03:48:26;;;;;;;8.97;3.97;;;;;;;-145.69;60.92;52325.56;5112689;28;20223;-82
2024/03/03 03:50:53;;;;;;;9.57;4.90;;;;;;;-145.69;60.96;52327.53;5112526;28;20276;-82
2024/03/03 03:53:22;;;;;;;10.83;5.53;;;;;;;-145.69;60.44;52341.41;5112747;28;20551;-82
2024/03/03 03:55:55;;;;;;;9.23;4.73;;;;;;;-145.69;59.91;52349.31;5113775;28;20236;-82
2024/03/03 03:58:21;;;;;;;9.97;4.73;;;;;;;-145.69;59.95;52339.44;5112597;28;20201;-82
2024/03/03 04:00:50;;;;;;;11.10;4.73;;;;;;;-145.69;60.19;52343.38;5112563;28;20202;-82
2024/03/03 04:03:20;;;;;;;10.87;4.70;;;;;;;-145.69;60.07;52369.13;5095699;28;20300;-82
2024/03/03 04:05:48;;;;;;;11.63;4.47;;;;;;;-145.69;60.13;52341.41;5092119;28;20587;-82
2024/03/03 04:08:15;;;;;;;7.47;3.90;;;;;;;-145.69;60.11;52317.66;5099759;28;20208;-83
2024/03/03 04:10:43;;;;;;;8.00;4.40;;;;;;;-145.69;60.17;52331.50;5116591;28;20201;-82
2024/03/03 04:13:10;;;;;;;9.00;4.70;;;;;;;-145.69;60.59;52305.75;5116154;28;20232;-82
2024/03/03 04:15:38;;;;;;;7.93;3.80;;;;;;;-145.69;61.09;52357.25;5116130;28;20213;-83
2024/03/03 04:18:04;;;;;;;8.33;4.33;;;;;;;-145.69;60.96;52369.13;5116208;28;20279;-82
2024/03/03 04:20:34;;;;;;;10.53;4.57;;;;;;;-145.69;61.24;52329.53;5098018;28;20202;-82
2024/03/03 04:23:03;;;;;;;11.00;5.20;;;;;;;-145.69;61.76;52345.38;5095010;28;20807;-82
2024/03/03 04:25:30;;;;;;;10.23;5.07;;;;;;;-145.69;61.46;52337.44;5112548;28;20216;-82
2024/03/03 04:27:57;;;;;;;11.13;5.13;;;;;;;-145.69;61.19;52335.47;5116539;28;20208;-82
2024/03/03 04:30:25;;;;;;;10.03;4.43;;;;;;;-145.69;60.70;52311.69;5116012;28;20553;-81
2024/03/03 04:32:54;;;;;;;11.83;4.80;;;;;;;-145.69;60.61;52337.44;5115543;28;20214;-82
2024/03/03 04:35:21;;;;;;;8.47;4.53;;;;;;;-145.69;59.97;52319.63;5115303;28;20629;-82
2024/03/03 04:37:53;;;;;;;13.33;4.17;;;;;;;-145.69;59.81;52369.13;5115520;28;20193;-82
2024/03/03 04:40:23;;;;;;;8.13;4.27;;;;;;;-145.69;58.71;52321.59;5116468;28;20193;-83
2024/03/03 04:42:50;;;;;;;8.53;4.50;;;;;;;-145.69;57.80;52335.47;5115922;28;20209;-83
2024/03/03 04:45:17;;;;;;;7.67;3.97;;;;;;;-145.69;57.36;52321.59;5115718;28;20207;-83
2024/03/03 04:47:43;;;;;;;9.03;4.27;;;;;;;-145.69;57.53;52319.63;5116085;28;20223;-82
2024/03/03 04:50:11;;;;;;;8.20;4.07;;;;;;;-145.69;57.55;52339.44;5115294;28;20586;-82
2024/03/03 04:52:38;;;;;;;5.77;3.60;;;;;;;-145.69;57.58;52303.78;5115007;28;20249;-82
2024/03/03 04:55:06;;;;;;;6.67;3.73;;;;;;;-145.69;57.81;52343.38;5115348;28;20221;-82
2024/03/03 04:57:34;;;;;;;9.37;4.20;;;;;;;-145.69;57.21;52305.75;5116101;28;20280;-81
2024/03/03 05:00:02;;;;;;;7.17;3.87;;;;;;;-145.69;57.33;52307.75;5115597;28;20209;-82
2024/03/03 05:02:28;;;;;;;9.93;4.00;;;;;;;-145.69;56.93;52347.34;5115197;28;20572;-81
2024/03/03 05:04:54;;;;;;;7.60;4.23;;;;;;;-145.69;56.91;52305.75;5114902;28;20667;-81
2024/03/03 05:07:21;;;;;;;7.17;3.43;;;;;;;-145.69;57.20;52355.28;5115303;28;20202;-80
2024/03/03 05:09:50;;;;;;;9.27;3.63;;;;;;;-145.69;56.87;52325.56;5112005;28;20202;-81
2024/03/03 05:12:18;;;;;;;6.60;3.67;;;;;;;-145.69;58.02;52317.66;5112599;28;20431;-81
2024/03/03 05:14:46;;;;;;;8.53;3.80;;;;;;;-145.69;57.30;52295.84;5115159;28;20193;-81
2024/03/03 05:17:14;;;;;;;6.87;3.40;;;;;;;-145.69;57.55;52331.50;5114212;28;20206;-81
2024/03/03 05:19:43;;;;;;;8.07;3.93;;;;;;;-145.69;57.49;52327.53;5113522;28;20225;-81
2024/03/03 05:22:10;;;;;;;5.93;3.47;;;;;;;-145.69;57.45;52359.22;5113146;28;20198;-81
2024/03/03 05:24:36;;;;;;;6.63;3.37;;;;;;;-145.69;57.10;52321.59;5114606;28;20206;-80
2024/03/03 05:27:05;;;;;;;11.47;3.73;;;;;;;-145.69;56.29;52329.53;5108862;28;20206;-81
2024/03/03 05:29:35;;;;;;;6.87;3.13;;;;;;;-145.69;55.84;52347.34;5112397;28;20734;-81
2024/03/03 05:32:06;;;;;;;8.47;4.00;;;;;;;-145.69;55.68;52303.78;5113743;28;20246;-81
2024/03/03 05:34:32;;;;;;;8.27;3.60;;;;;;;-145.69;56.09;52325.56;5114569;28;20212;-81
2024/03/03 05:36:59;;;;;;;7.70;4.03;;;;;;;-145.69;55.52;52337.44;5114617;28;20225;-82
2024/03/03 05:39:26;;;;;;;10.00;3.37;;;;;;;-145.69;56.09;52313.69;5113966;28;20194;-83
2024/03/03 05:41:52;;;;;;;6.50;3.13;;;;;;;-145.69;55.70;52301.81;5114193;28;20734;-81
2024/03/03 05:44:19;;;;;;;5.37;2.87;;;;;;;-145.69;56.28;52285.97;5113498;28;20197;-80
2024/03/03 05:46:45;;;;;;;6.83;3.07;;;;;;;-145.69;56.36;52323.59;5114299;28;20201;-82
2024/03/03 05:49:15;;;;;;;5.57;3.03;;;;;;;-145.69;56.38;52331.50;5114487;28;20224;-81
2024/03/03 05:51:43;;;;;;;6.07;3.30;;;;;;;-145.69;56.72;52325.56;5114317;28;20233;-81
2024/03/03 05:54:13;;;;;;;7.00;3.10;;;;;;;-145.69;56.32;52319.63;5114303;28;20209;-81
2024/03/03 05:56:40;;;;;;;7.37;2.90;;;;;;;-145.69;56.65;52319.63;5114490;28;20225;-80
2024/03/03 05:59:09;;;;;;;6.67;2.93;;;;;;;-145.69;56.92;52333.47;5114636;28;20611;-80
2024/03/03 06:01:36;;;;;;;5.90;2.83;;;;;;;-145.69;56.90;52329.53;5110871;28;20211;-81
2024/03/03 06:04:02;;;;;;;6.60;2.80;;;;;;;-145.69;56.88;52295.84;5113419;28;20201;-81
2024/03/03 06:06:30;;;;;;;4.90;2.63;;;;;;;-145.69;56.58;52341.41;5094540;28;20202;-82
2024/03/03 06:08:57;;;;;;;5.20;2.43;;;;;;;-145.69;57.20;52333.47;5113726;28;20197;-82
2024/03/03 06:11:23;;;;;;;4.40;2.60;;;;;;;-145.69;57.23;52303.78;5114325;28;20255;-82
2024/03/03 06:13:49;;;;;;;3.87;2.23;;;;;;;-145.69;57.20;52329.53;5114039;28;20196;-81
2024/03/03 06:16:24;;;;;;;6.70;2.70;;;;;;;-145.69;57.43;52317.66;5113937;28;20213;-82
2024/03/03 06:18:54;;;;;;;5.33;2.30;;;;;;;-145.69;57.17;52303.78;5101998;28;20205;-82
2024/03/03 06:21:22;;;;;;;5.00;2.87;;;;;;;-145.69;57.45;52327.53;5093868;28;20210;-82
2024/03/03 06:23:50;;;;;;;5.30;2.60;;;;;;;-145.69;57.45;52299.81;5105564;28;20251;-81
2024/03/03 06:26:17;;;;;;;7.80;3.47;;;;;;;-145.69;57.76;52309.72;5114191;28;20212;-82
2024/03/03 06:28:48;;;;;;;8.73;4.63;;;;;;;-145.69;57.17;52323.59;5114074;28;20197;-82
2024/03/03 06:31:15;;;;;;;15.17;6.83;;;;;;;-145.69;58.03;52353.28;5113131;28;20708;-82
2024/03/03 06:33:41;;;;;;;16.13;6.73;;;;;;;-145.69;58.54;52331.50;5113991;28;20679;-82
2024/03/03 06:36:15;;;;;;;14.53;6.90;;;;;;;-145.69;58.46;52337.44;5098654;28;20222;-82
2024/03/03 06:38:45;;;;;;;11.30;5.73;;;;;;;-145.69;58.92;52278.03;5099817;28;20205;-80
2024/03/03 06:41:17;;;;;;;13.83;5.57;;;;;;;-145.69;58.71;52293.88;5113113;28;20559;-81
2024/03/03 06:43:43;;;;;;;8.77;4.27;;;;;;;-145.69;58.71;52282.00;5113884;28;20299;-83
2024/03/03 06:46:10;;;;;;;9.00;4.13;;;;;;;-145.69;57.92;52301.81;5113405;28;20206;-83
2024/03/03 06:48:38;;;;;;;10.10;4.63;;;;;;;-145.69;58.11;52264.16;5113632;28;20289;-82
2024/03/03 06:51:05;;;;;;;14.80;5.53;;;;;;;-145.69;57.98;52301.81;5112886;28;20208;-82
2024/03/03 06:53:37;;;;;;;12.40;5.10;;;;;;;-145.69;58.08;52311.69;5112181;28;20294;-82
2024/03/03 06:56:06;;;;;;;8.97;4.90;;;;;;;-145.69;57.39;52305.75;5113199;28;20221;-82
2024/03/03 06:58:34;;;;;;;10.97;4.27;;;;;;;-145.69;57.64;52297.84;5113061;28;20594;-82
2024/03/03 07:01:04;;;;;;;8.47;4.03;;;;;;;-145.69;57.30;52309.72;5112903;28;20682;-82
2024/03/03 07:03:54;;;;;;;5.00;2.70;;;;;;;-145.69;55.40;52329.53;5113420;28;20205;-82
2024/03/03 07:06:24;;;;;;;3.63;2.20;;;;;;;-145.69;53.88;52297.84;5100724;27;20555;-81
2024/03/03 07:08:50;;;;;;;3.10;1.60;;;;;;;-145.69;49.56;52293.88;5107140;28;20210;-82
2024/03/03 07:11:21;;;;;;;2.73;1.73;;;;;;;-145.69;48.46;52293.88;5093528;28;20213;-82
2024/03/03 07:13:49;;;;;;;1.67;1.37;;;;;;;-145.69;45.62;52301.81;5105362;28;20228;-82
2024/03/03 07:16:16;;;;;;;2.20;1.23;;;;;;;-145.69;45.45;52258.22;5112727;28;20233;-82
2024/03/03 07:18:42;;;;;;;2.63;1.70;;;;;;;-145.69;45.85;52295.84;5113253;28;20298;-83
2024/03/03 07:21:09;;;;;;;1.93;1.30;;;;;;;-145.69;45.98;52272.09;5113217;28;20205;-82
2024/03/03 07:23:36;;;;;;;2.20;1.40;;;;;;;-145.69;45.35;52270.13;5113357;28;20280;-82
2024/03/03 07:26:03;;;;;;;1.97;1.20;;;;;;;-145.69;43.74;52252.28;5111330;28;20551;-83
2024/03/03 07:28:29;;;;;;;1.80;1.27;;;;;;;-145.69;43.99;52274.06;5113201;27;20203;-82
2024/03/03 07:30:58;;;;;;;1.60;1.23;;;;;;;-145.69;42.66;52283.97;5112756;28;20196;-82
2024/03/03 07:33:24;;;;;;;2.77;1.37;;;;;;;-145.69;42.70;52278.03;5112549;28;20577;-83
2024/03/03 07:35:51;;;;;;;2.37;1.50;;;;;;;-145.69;41.52;52276.06;5113396;28;20225;-82
2024/03/03 07:38:18;;;;;;;2.57;1.20;;;;;;;-145.69;41.49;52252.28;5112435;28;20200;-83
2024/03/03 07:40:45;;;;;;;2.20;1.27;;;;;;;-145.69;40.87;52268.13;5115737;28;20613;-83
2024/03/03 07:43:14;;;;;;;6.37;1.37;;;;;;;-145.69;40.72;52246.34;5119800;27;20198;-82
2024/03/03 07:45:41;;;;;;;1.65;1.10;;;;;;;-145.69;40.85;52218.63;5103141;28;20239;-82
2024/03/03 07:48:09;;;;;;;1.77;1.00;;;;;;;-145.69;40.19;52270.13;5116892;27;20284;-83
2024/03/03 07:50:36;;;;;;;2.60;1.52;;;;;;;-145.69;39.45;52256.25;5117332;28;20205;-83
2024/03/03 07:53:02;;;;;;;1.23;1.00;;;;;;;-145.69;39.32;52258.22;5115034;28;20718;-83
2024/03/03 07:55:31;;;;;;;2.07;1.30;;;;;;;-145.69;39.68;52266.16;5101466;28;20277;-84
2024/03/03 07:57:57;;;;;;;1.30;0.95;;;;;;;-145.69;39.27;52246.34;5116968;28;20525;-83
2024/03/03 08:00:26;;;;;;;3.33;1.17;;;;;;;-145.69;39.52;52228.53;5110809;28;20208;-82
2024/03/03 08:02:53;;;;;;;1.73;1.00;;;;;;;-145.69;39.72;52198.81;5117676;27;20228;-83
2024/03/03 08:05:21;;;;;;;2.92;1.27;;;;;;;-145.69;39.50;52242.38;5116921;28;20197;-83
2024/03/03 08:07:47;;;;;;;2.50;1.30;;;;;;;-145.69;39.85;52226.53;5116366;28;20205;-83
2024/03/03 08:10:14;;;;;;;1.42;1.20;;;;;;;-145.69;39.20;52256.25;5116969;28;20300;-83
2024/03/03 08:12:41;;;;;;;1.90;1.23;;;;;;;-145.69;38.20;52230.50;5116903;28;20202;-83
2024/03/03 08:15:10;;;;;;;1.65;1.20;;;;;;;-145.69;38.63;52204.75;5116650;28;20208;-82
2024/03/03 08:17:37;;;;;;;2.15;1.20;;;;;;;-145.69;38.35;52202.78;5115142;28;20691;-80
2024/03/03 08:20:04;;;;;;;1.83;1.20;;;;;;;-145.69;38.33;52230.50;5116669;27;20201;-81
2024/03/03 08:22:35;;;;;;;1.80;1.30;;;;;;;-145.69;38.44;52232.50;5115470;28;20668;-81
2024/03/03 08:25:02;;;;;;;2.03;1.20;;;;;;;-145.69;37.80;52204.75;5116659;28;20288;-81
2024/03/03 08:27:28;;;;;;;0.90;0.85;;;;;;;-145.69;37.68;52208.72;5116270;28;20198;-81
2024/03/03 08:29:56;;;;;;;1.67;1.27;;;;;;;-145.69;37.78;52206.75;5116532;28;20239;-81
2024/03/03 08:32:23;;;;;;;2.03;1.38;;;;;;;-145.69;37.09;52224.56;5115841;27;20521;-81
2024/03/03 08:34:52;;;;;;;1.73;1.20;;;;;;;-145.69;37.23;52206.75;5116321;28;20202;-82
2024/03/03 08:37:18;;;;;;;3.17;1.30;;;;;;;-145.69;37.22;52194.88;5115901;28;20229;-81
2024/03/03 08:39:49;;;;;;;1.95;1.40;;;;;;;-145.69;37.84;52198.81;5115912;28;20193;-81
2024/03/03 08:42:16;;;;;;;1.85;1.10;;;;;;;-145.69;37.58;52182.97;5115563;28;20208;-82
2024/03/03 08:44:42;;;;;;;1.52;0.98;;;;;;;-145.69;37.45;52212.69;5115239;28;20636;-81
2024/03/03 08:47:12;;;;;;;1.58;0.73;;;;;;;-145.69;37.51;52216.66;5115532;28;20582;-81
2024/03/03 08:49:38;;;;;;;1.70;1.02;;;;;;;-145.69;37.36;52175.06;5115986;28;20594;-81
2024/03/03 08:52:08;;;;;;;1.65;1.00;;;;;;;-145.69;37.22;52198.81;5114053;28;20225;-82
2024/03/03 08:54:34;;;;;;;1.25;1.10;;;;;;;-145.69;36.87;52214.66;5115963;28;20553;-82
2024/03/03 08:57:02;;;;;;;2.08;1.10;;;;;;;-145.69;37.01;52194.88;5115727;28;20274;-81
2024/03/03 08:59:29;;;;;;;2.25;1.10;;;;;;;-145.69;36.01;52186.94;5115748;28;20205;-81
2024/03/03 09:01:55;;;;;;;1.52;1.13;;;;;;;-145.69;36.41;52188.91;5115389;28;20289;-81
2024/03/03 09:04:22;;;;;;;1.85;1.05;;;;;;;-145.69;36.21;52179.03;5115773;28;20202;-82
2024/03/03 09:06:51;;;;;;;1.50;1.20;;;;;;;-145.69;36.01;52167.13;5115380;28;20280;-82
2024/03/03 09:09:18;;;;;;;4.47;1.00;;;;;;;-145.69;36.42;52163.19;5114618;28;20644;-82
2024/03/03 09:11:45;;;;;;;3.45;2.25;;;;;;;-145.69;36.22;52184.97;5115258;28;20608;-81
2024/03/03 09:14:13;;;;;;;2.47;1.00;;;;;;;-145.69;36.16;52167.13;5114643;28;20679;-81
2024/03/03 09:16:39;;;;;;;2.40;1.25;;;;;;;-145.69;36.23;52179.03;5114360;28;20266;-81
2024/03/03 09:19:09;;;;;;;2.22;1.27;;;;;;;-145.69;35.98;52165.16;5114812;28;20643;-81
2024/03/03 09:21:40;;;;;;;4.13;1.20;;;;;;;-145.69;35.54;52171.09;5115394;28;20197;-82
2024/03/03 09:24:07;;;;;;;1.95;1.13;;;;;;;-145.69;35.37;52165.16;5114555;28;20208;-81
2024/03/03 09:26:39;;;;;;;2.25;1.20;;;;;;;-145.69;36.32;52184.97;5115154;28;20235;-81
2024/03/03 09:29:06;;;;;;;2.35;1.50;;;;;;;-145.69;35.39;52135.47;5114977;28;20284;-81
2024/03/03 09:31:34;;;;;;;2.13;1.20;;;;;;;-145.69;35.19;52159.22;5114382;28;20263;-82
2024/03/03 09:34:00;;;;;;;1.77;1.30;;;;;;;-145.69;35.16;52175.06;5114337;28;20185;-82
2024/03/03 09:36:30;;;;;;;2.65;1.30;;;;;;;-145.69;34.96;52169.13;5114279;28;20316;-81
2024/03/03 09:38:56;;;;;;;1.67;1.25;;;;;;;-145.69;34.93;52165.16;5113654;28;20193;-81
2024/03/03 09:41:25;;;;;;;3.17;1.67;;;;;;;-145.69;34.67;52155.25;5113335;28;20564;-82
2024/03/03 09:43:58;;;;;;;2.03;1.15;;;;;;;-145.69;34.37;52155.25;5113988;28;20262;-82
2024/03/03 09:46:28;;;;;;;2.53;1.40;;;;;;;-145.69;34.98;52131.50;5113974;28;20208;-83
2024/03/03 09:48:57;;;;;;;2.08;1.40;;;;;;;-145.69;34.68;52167.13;5113628;27;20293;-82
2024/03/03 09:51:26;;;;;;;3.25;1.40;;;;;;;-145.69;34.93;52171.09;5114132;28;20233;-83
2024/03/03 09:53:55;;;;;;;3.05;1.40;;;;;;;-145.69;34.70;52147.34;5113935;28;20200;-83
2024/03/03 09:56:23;;;;;;;2.92;1.60;;;;;;;-145.69;34.36;52149.31;5113198;28;20193;-82
2024/03/03 09:58:55;;;;;;;2.95;1.40;;;;;;;-145.69;35.17;52151.28;5113326;28;20193;-81
2024/03/03 10:01:23;;;;;;;1.90;1.27;;;;;;;-145.69;35.11;52143.38;5113673;28;20201;-82
2024/03/03 10:03:50;;;;;;;1.98;1.30;;;;;;;-145.69;34.83;52143.38;5113676;28;20197;-81
2024/03/03 10:06:22;;;;;;;2.83;1.58;;;;;;;-145.69;35.34;52125.56;5113368;28;20190;-81
2024/03/03 10:08:53;;;;;;;2.30;1.70;;;;;;;-145.69;34.37;52125.56;5113051;28;20197;-81
2024/03/03 10:11:26;;;;;;;1.80;1.35;;;;;;;-145.69;34.35;52155.25;5113436;28;20253;-82
2024/03/03 10:13:53;;;;;;;3.50;1.50;;;;;;;-145.69;34.65;52125.56;5113213;28;20635;-81
2024/03/03 10:16:21;;;;;;;2.10;1.40;;;;;;;-145.69;34.81;52171.09;5113203;28;20202;-81
2024/03/03 10:18:59;;;;;;;2.53;1.65;;;;;;;-145.69;34.60;52131.50;5113080;28;20197;-82
2024/03/03 10:21:36;;;;;;;2.22;1.70;;;;;;;-145.69;35.08;52131.50;5113718;28;20201;-82
2024/03/03 10:24:24;;;;;;;5.70;1.58;;;;;;;-145.69;34.04;52163.19;5114294;28;20205;-82
2024/03/03 10:26:52;;;;;;;3.47;1.55;;;;;;;-145.69;34.53;52121.59;5112948;28;20250;-81
2024/03/03 10:29:20;;;;;;;2.70;1.70;;;;;;;-145.69;34.25;52135.47;5112511;28;20258;-82
2024/03/03 10:31:47;;;;;;;2.65;1.65;;;;;;;-145.69;34.55;52147.34;5112793;28;20229;-82
2024/03/03 10:34:14;;;;;;;2.47;1.70;;;;;;;-145.69;34.50;52123.56;5113131;28;20280;-82
2024/03/03 10:36:42;;;;;;;4.53;1.80;;;;;;;-145.69;34.28;52123.56;5112994;28;20201;-83
2024/03/03 10:39:09;;;;;;;2.15;1.70;;;;;;;-145.69;34.23;52115.66;5117699;27;20219;-83
2024/03/03 10:41:36;;;;;;;7.00;1.50;;;;;;;-145.69;34.60;52133.47;5114059;28;20193;-84
2024/03/03 10:44:03;;;;;;;5.95;1.70;;;;;;;-145.69;34.57;52111.69;5113033;28;20270;-82
2024/03/03 10:46:30;;;;;;;2.40;1.63;;;;;;;-145.69;34.80;52121.59;5112941;28;20603;-82
2024/03/03 10:49:00;;;;;;;2.33;1.50;;;;;;;-145.69;34.49;52143.38;5113592;28;20201;-82
2024/03/03 10:51:30;;;;;;;2.55;1.60;;;;;;;-145.69;34.11;52113.66;5112674;28;20695;-82
2024/03/03 10:54:02;;;;;;;2.60;1.38;;;;;;;-145.69;33.99;52135.47;5113002;28;20227;-81
2024/03/03 10:56:33;;;;;;;2.72;1.50;;;;;;;-145.69;34.42;52107.72;5113276;28;20201;-81
2024/03/03 10:59:01;;;;;;;2.38;1.50;;;;;;;-145.69;34.22;52105.75;5113350;28;20197;-82
2024/03/03 11:01:31;;;;;;;2.92;1.40;;;;;;;-145.69;34.63;52135.47;5112712;28;20189;-82
2024/03/03 11:04:00;;;;;;;2.40;1.52;;;;;;;-145.69;34.47;52145.34;5113294;28;20288;-81
2024/03/03 11:06:27;;;;;;;2.22;1.45;;;;;;;-145.69;34.49;52121.59;5112847;28;20208;-82
2024/03/03 11:08:55;;;;;;;3.83;1.20;;;;;;;-145.69;34.21;52171.09;5112862;28;20242;-80
2024/03/03 11:11:25;;;;;;;1.65;1.30;;;;;;;-145.69;34.13;52131.50;5112347;28;20212;-81
2024/03/03 11:13:56;;;;;;;3.85;1.25;;;;;;;-145.69;34.29;52127.53;5112937;28;20201;-81
2024/03/03 11:16:27;;;;;;;1.15;1.05;;;;;;;-145.69;34.29;52135.47;5113196;28;20276;-82
2024/03/03 11:18:59;;;;;;;1.67;1.23;;;;;;;-145.69;34.19;52093.88;5113575;28;20242;-82